FFT1049 KMCO-KMIA
Flight info
| Callsign | FFT1049 |
|---|---|
| Flight time | 0h 45m |
| Altitude | 22000 |
| Route | DDANY3 DDANY CSTAL3 |
| Aircraft | A320/M-SDE3FGHIRWY/LB1 |
Departure
| Time | 2026-05-03 21:40 |
|---|---|
| Airport | Orlando International Airport (KMCO) |
Arrival
| Time | 2026-05-03 22:25 |
|---|---|
| Airport | Miami International Airport (KMIA) |
| Time | Latitude | Longitude | Altitude | Speed | Heading |
|---|---|---|---|---|---|
| 2026-05-03 21:04 | 28.43593 | -81.31304 | 96 ft | 0 kts | 166° |
| 2026-05-03 21:25 | 28.43599 | -81.31306 | 95 ft | 4 kts | 169° |
| 2026-05-03 21:26 | 28.43626 | -81.31308 | 95 ft | 4 kts | 184° |
| 2026-05-03 21:26 | 28.43651 | -81.31307 | 95 ft | 2 kts | 178° |
| 2026-05-03 21:26 | 28.43674 | -81.31305 | 94 ft | 4 kts | 208° |
| 2026-05-03 21:26 | 28.43692 | -81.31285 | 96 ft | 4 kts | 248° |
| 2026-05-03 21:27 | 28.43696 | -81.31273 | 95 ft | 1 kts | 254° |
| 2026-05-03 21:27 | 28.43696 | -81.31272 | 95 ft | 1 kts | 254° |
| 2026-05-03 21:30 | 28.43696 | -81.31275 | 95 ft | 0 kts | 254° |
| 2026-05-03 21:30 | 28.43684 | -81.31323 | 95 ft | 7 kts | 257° |
| 2026-05-03 21:30 | 28.43689 | -81.31385 | 99 ft | 11 kts | 304° |
| 2026-05-03 21:31 | 28.43770 | -81.31433 | 103 ft | 17 kts | 335° |
| 2026-05-03 21:31 | 28.43871 | -81.31462 | 105 ft | 12 kts | 358° |
| 2026-05-03 21:31 | 28.43929 | -81.31401 | 104 ft | 14 kts | 88° |
| 2026-05-03 21:31 | 28.43932 | -81.31293 | 107 ft | 13 kts | 86° |
| 2026-05-03 21:32 | 28.43937 | -81.31183 | 108 ft | 14 kts | 87° |
| 2026-05-03 21:32 | 28.43942 | -81.31063 | 108 ft | 16 kts | 89° |
| 2026-05-03 21:32 | 28.43944 | -81.30928 | 107 ft | 18 kts | 89° |
| 2026-05-03 21:32 | 28.43938 | -81.30787 | 109 ft | 18 kts | 94° |
| 2026-05-03 21:33 | 28.43928 | -81.30638 | 106 ft | 21 kts | 95° |
| 2026-05-03 21:33 | 28.43918 | -81.30469 | 106 ft | 22 kts | 94° |
| 2026-05-03 21:33 | 28.43910 | -81.30286 | 103 ft | 24 kts | 91° |
| 2026-05-03 21:33 | 28.43902 | -81.30098 | 100 ft | 22 kts | 92° |
| 2026-05-03 21:34 | 28.43883 | -81.29962 | 100 ft | 18 kts | 110° |
| 2026-05-03 21:34 | 28.43793 | -81.29844 | 95 ft | 22 kts | 147° |
| 2026-05-03 21:34 | 28.43653 | -81.29808 | 97 ft | 18 kts | 178° |
| 2026-05-03 21:34 | 28.43534 | -81.29806 | 98 ft | 16 kts | 179° |
| 2026-05-03 21:35 | 28.43403 | -81.29804 | 95 ft | 24 kts | 179° |
| 2026-05-03 21:35 | 28.43220 | -81.29802 | 95 ft | 27 kts | 179° |
| 2026-05-03 21:35 | 28.43028 | -81.29801 | 96 ft | 28 kts | 179° |
| 2026-05-03 21:35 | 28.42830 | -81.29798 | 95 ft | 29 kts | 180° |
| 2026-05-03 21:36 | 28.42620 | -81.29796 | 97 ft | 31 kts | 180° |
| 2026-05-03 21:36 | 28.42401 | -81.29794 | 95 ft | 32 kts | 179° |
| 2026-05-03 21:36 | 28.42200 | -81.29792 | 95 ft | 28 kts | 179° |
| 2026-05-03 21:36 | 28.42069 | -81.29791 | 96 ft | 29 kts | 179° |
| 2026-05-03 21:37 | 28.41887 | -81.29789 | 96 ft | 24 kts | 179° |
| 2026-05-03 21:37 | 28.41714 | -81.29787 | 96 ft | 26 kts | 180° |
| 2026-05-03 21:37 | 28.41529 | -81.29785 | 94 ft | 27 kts | 179° |
| 2026-05-03 21:37 | 28.41333 | -81.29783 | 96 ft | 29 kts | 179° |
| 2026-05-03 21:38 | 28.41136 | -81.29781 | 94 ft | 21 kts | 179° |
| 2026-05-03 21:38 | 28.41001 | -81.29780 | 96 ft | 18 kts | 179° |
| 2026-05-03 21:38 | 28.40879 | -81.29779 | 94 ft | 15 kts | 181° |
| 2026-05-03 21:38 | 28.40821 | -81.29740 | 94 ft | 10 kts | 103° |
| 2026-05-03 21:39 | 28.40820 | -81.29653 | 94 ft | 12 kts | 89° |
| 2026-05-03 21:39 | 28.40843 | -81.29563 | 93 ft | 12 kts | 26° |
| 2026-05-03 21:39 | 28.40937 | -81.29560 | 93 ft | 16 kts | 358° |
| 2026-05-03 21:39 | 28.41211 | -81.29559 | 96 ft | 78 kts | 360° |
| 2026-05-03 21:40 | 28.42040 | -81.29568 | 98 ft | 157 kts | 359° |
| 2026-05-03 21:40 | 28.43209 | -81.29615 | 783 ft | 171 kts | 4° |
| 2026-05-03 21:40 | 28.44419 | -81.29638 | 1700 ft | 183 kts | 9° |
| 2026-05-03 21:40 | 28.45617 | -81.28987 | 2265 ft | 207 kts | 50° |
| 2026-05-03 21:41 | 28.46387 | -81.27571 | 3377 ft | 208 kts | 60° |
| 2026-05-03 21:41 | 28.47189 | -81.26214 | 4386 ft | 213 kts | 54° |
| 2026-05-03 21:41 | 28.48127 | -81.24833 | 4777 ft | 231 kts | 52° |
| 2026-05-03 21:41 | 28.49199 | -81.23305 | 4963 ft | 260 kts | 51° |
| 2026-05-03 21:42 | 28.50214 | -81.21605 | 5001 ft | 267 kts | 68° |
| 2026-05-03 21:42 | 28.50699 | -81.19566 | 5010 ft | 268 kts | 77° |
| 2026-05-03 21:42 | 28.51060 | -81.17488 | 5012 ft | 268 kts | 84° |
| 2026-05-03 21:42 | 28.50859 | -81.15339 | 5314 ft | 277 kts | 110° |
| 2026-05-03 21:43 | 28.49934 | -81.13420 | 6225 ft | 281 kts | 126° |
| 2026-05-03 21:43 | 28.48815 | -81.11558 | 6996 ft | 288 kts | 127° |
| 2026-05-03 21:43 | 28.47652 | -81.09674 | 7811 ft | 294 kts | 128° |
| 2026-05-03 21:43 | 28.46456 | -81.07764 | 8607 ft | 299 kts | 129° |
| 2026-05-03 21:44 | 28.45234 | -81.05817 | 9389 ft | 306 kts | 129° |
| 2026-05-03 21:44 | 28.43987 | -81.03823 | 10133 ft | 314 kts | 129° |
| 2026-05-03 21:44 | 28.42673 | -81.01730 | 10424 ft | 338 kts | 129° |
| 2026-05-03 21:44 | 28.41262 | -80.99484 | 10719 ft | 359 kts | 129° |
| 2026-05-03 21:45 | 28.39800 | -80.97142 | 11328 ft | 367 kts | 129° |
| 2026-05-03 21:45 | 28.38318 | -80.94756 | 12072 ft | 372 kts | 130° |
| 2026-05-03 21:45 | 28.36822 | -80.92345 | 12824 ft | 376 kts | 130° |
| 2026-05-03 21:45 | 28.35306 | -80.89906 | 13545 ft | 379 kts | 130° |
| 2026-05-03 21:46 | 28.33798 | -80.87484 | 13898 ft | 382 kts | 130° |
| 2026-05-03 21:46 | 28.32262 | -80.85019 | 13997 ft | 382 kts | 130° |
| 2026-05-03 21:46 | 28.30730 | -80.82560 | 14018 ft | 382 kts | 130° |
| 2026-05-03 21:46 | 28.29196 | -80.80105 | 14018 ft | 381 kts | 130° |
| 2026-05-03 21:47 | 28.27655 | -80.77645 | 14204 ft | 386 kts | 130° |
| 2026-05-03 21:47 | 28.26095 | -80.75161 | 14887 ft | 388 kts | 130° |
| 2026-05-03 21:47 | 28.24520 | -80.72646 | 15501 ft | 393 kts | 130° |
| 2026-05-03 21:47 | 28.22833 | -80.70200 | 16093 ft | 394 kts | 139° |
| 2026-05-03 21:48 | 28.20782 | -80.68163 | 16675 ft | 390 kts | 152° |
| 2026-05-03 21:48 | 28.18446 | -80.66644 | 17257 ft | 386 kts | 163° |
| 2026-05-03 21:48 | 28.15925 | -80.65670 | 17824 ft | 382 kts | 173° |
| 2026-05-03 21:48 | 28.13340 | -80.64905 | 18392 ft | 386 kts | 173° |
| 2026-05-03 21:49 | 28.10726 | -80.64129 | 18923 ft | 390 kts | 173° |
| 2026-05-03 21:49 | 28.08096 | -80.63344 | 19480 ft | 392 kts | 173° |
| 2026-05-03 21:49 | 28.05449 | -80.62552 | 20046 ft | 394 kts | 173° |
| 2026-05-03 21:49 | 28.02787 | -80.61756 | 20593 ft | 396 kts | 173° |
| 2026-05-03 21:50 | 28.00117 | -80.60959 | 21159 ft | 398 kts | 173° |
| 2026-05-03 21:50 | 27.97427 | -80.60155 | 21569 ft | 400 kts | 173° |
| 2026-05-03 21:50 | 27.94741 | -80.59347 | 21819 ft | 400 kts | 173° |
| 2026-05-03 21:50 | 27.92051 | -80.58538 | 22020 ft | 400 kts | 173° |
| 2026-05-03 21:51 | 27.89348 | -80.57728 | 22080 ft | 404 kts | 173° |
| 2026-05-03 21:51 | 27.86628 | -80.56914 | 22078 ft | 405 kts | 173° |
| 2026-05-03 21:51 | 27.83907 | -80.56102 | 22079 ft | 405 kts | 173° |
| 2026-05-03 21:51 | 27.81178 | -80.55291 | 22079 ft | 405 kts | 173° |
| 2026-05-03 21:52 | 27.78453 | -80.54480 | 22077 ft | 405 kts | 173° |
| 2026-05-03 21:52 | 27.75729 | -80.53670 | 22073 ft | 405 kts | 173° |
| 2026-05-03 21:52 | 27.73005 | -80.52857 | 22067 ft | 405 kts | 173° |
| 2026-05-03 21:52 | 27.70276 | -80.52039 | 22082 ft | 405 kts | 173° |
| 2026-05-03 21:53 | 27.67550 | -80.51223 | 22082 ft | 405 kts | 173° |
| 2026-05-03 21:53 | 27.64831 | -80.50383 | 22082 ft | 407 kts | 172° |
| 2026-05-03 21:53 | 27.62126 | -80.49416 | 22081 ft | 409 kts | 169° |
| 2026-05-03 21:53 | 27.59438 | -80.48351 | 22081 ft | 410 kts | 168° |
| 2026-05-03 21:54 | 27.56760 | -80.47236 | 22080 ft | 411 kts | 168° |
| 2026-05-03 21:54 | 27.54081 | -80.46110 | 22072 ft | 411 kts | 168° |
| 2026-05-03 21:54 | 27.51402 | -80.44999 | 22073 ft | 410 kts | 168° |
| 2026-05-03 21:54 | 27.48717 | -80.43910 | 22073 ft | 410 kts | 168° |
| 2026-05-03 21:55 | 27.46030 | -80.42840 | 22071 ft | 409 kts | 169° |
| 2026-05-03 21:55 | 27.43340 | -80.41783 | 22070 ft | 409 kts | 169° |
| 2026-05-03 21:55 | 27.40687 | -80.40747 | 22064 ft | 409 kts | 169° |
| 2026-05-03 21:55 | 27.37963 | -80.39684 | 22062 ft | 409 kts | 169° |
| 2026-05-03 21:56 | 27.35310 | -80.38640 | 22062 ft | 409 kts | 169° |
| 2026-05-03 21:56 | 27.32589 | -80.37563 | 22060 ft | 409 kts | 169° |
| 2026-05-03 21:56 | 27.29940 | -80.36514 | 22060 ft | 409 kts | 169° |
| 2026-05-03 21:56 | 27.27254 | -80.35454 | 22059 ft | 409 kts | 169° |
| 2026-05-03 21:57 | 27.24569 | -80.34397 | 22058 ft | 409 kts | 169° |
| 2026-05-03 21:57 | 27.21878 | -80.33338 | 22058 ft | 409 kts | 169° |
| 2026-05-03 21:57 | 27.19189 | -80.32282 | 22059 ft | 409 kts | 169° |
| 2026-05-03 21:57 | 27.16502 | -80.31234 | 22060 ft | 409 kts | 169° |
| 2026-05-03 21:58 | 27.13807 | -80.30189 | 22049 ft | 410 kts | 169° |
| 2026-05-03 21:58 | 27.11112 | -80.29145 | 22051 ft | 409 kts | 169° |
| 2026-05-03 21:58 | 27.08421 | -80.28102 | 22056 ft | 409 kts | 169° |
| 2026-05-03 21:58 | 27.05729 | -80.27056 | 22061 ft | 410 kts | 168° |
| 2026-05-03 21:59 | 27.03038 | -80.26010 | 22028 ft | 407 kts | 169° |
| 2026-05-03 21:59 | 27.00396 | -80.24980 | 21774 ft | 397 kts | 169° |
| 2026-05-03 21:59 | 26.97806 | -80.23972 | 21521 ft | 392 kts | 169° |
| 2026-05-03 21:59 | 26.95236 | -80.22979 | 21266 ft | 390 kts | 169° |
| 2026-05-03 22:00 | 26.92673 | -80.21991 | 21041 ft | 389 kts | 169° |
| 2026-05-03 22:00 | 26.90119 | -80.21008 | 20787 ft | 387 kts | 169° |
| 2026-05-03 22:00 | 26.87573 | -80.20028 | 20541 ft | 386 kts | 169° |
| 2026-05-03 22:00 | 26.85035 | -80.19053 | 20302 ft | 385 kts | 169° |
| 2026-05-03 22:01 | 26.82500 | -80.18099 | 20044 ft | 384 kts | 169° |
| 2026-05-03 22:01 | 26.79967 | -80.17161 | 19808 ft | 383 kts | 169° |
| 2026-05-03 22:01 | 26.77441 | -80.16231 | 19554 ft | 382 kts | 168° |
| 2026-05-03 22:01 | 26.74922 | -80.15304 | 19330 ft | 380 kts | 168° |
| 2026-05-03 22:02 | 26.72425 | -80.14384 | 19104 ft | 376 kts | 168° |
| 2026-05-03 22:02 | 26.69940 | -80.13513 | 18876 ft | 373 kts | 171° |
| 2026-05-03 22:02 | 26.67447 | -80.12769 | 18652 ft | 370 kts | 173° |
| 2026-05-03 22:02 | 26.64947 | -80.12106 | 18429 ft | 368 kts | 173° |
| 2026-05-03 22:03 | 26.62466 | -80.11480 | 18042 ft | 364 kts | 174° |
| 2026-05-03 22:03 | 26.59996 | -80.10858 | 17475 ft | 363 kts | 173° |
| 2026-05-03 22:03 | 26.57542 | -80.10245 | 17094 ft | 358 kts | 174° |
| 2026-05-03 22:03 | 26.55145 | -80.09652 | 16968 ft | 347 kts | 174° |
| 2026-05-03 22:04 | 26.52828 | -80.09077 | 16839 ft | 335 kts | 174° |
| 2026-05-03 22:04 | 26.50579 | -80.08519 | 16574 ft | 328 kts | 173° |
| 2026-05-03 22:04 | 26.48357 | -80.07968 | 16230 ft | 326 kts | 173° |
| 2026-05-03 22:04 | 26.46153 | -80.07424 | 15861 ft | 324 kts | 173° |
| 2026-05-03 22:05 | 26.43956 | -80.06915 | 15505 ft | 321 kts | 174° |
| 2026-05-03 22:05 | 26.41770 | -80.06452 | 15148 ft | 319 kts | 175° |
| 2026-05-03 22:05 | 26.39592 | -80.06007 | 14791 ft | 317 kts | 175° |
| 2026-05-03 22:05 | 26.37433 | -80.05509 | 14449 ft | 317 kts | 172° |
| 2026-05-03 22:06 | 26.35290 | -80.04942 | 14105 ft | 316 kts | 171° |
| 2026-05-03 22:06 | 26.33162 | -80.04345 | 13750 ft | 315 kts | 171° |
| 2026-05-03 22:06 | 26.31044 | -80.03743 | 13388 ft | 313 kts | 171° |
| 2026-05-03 22:06 | 26.28938 | -80.03144 | 13072 ft | 312 kts | 171° |
| 2026-05-03 22:07 | 26.26838 | -80.02569 | 12765 ft | 309 kts | 174° |
| 2026-05-03 22:07 | 26.24732 | -80.02410 | 12426 ft | 300 kts | 189° |
| 2026-05-03 22:07 | 26.22723 | -80.02779 | 12095 ft | 295 kts | 196° |
| 2026-05-03 22:07 | 26.20725 | -80.03244 | 11865 ft | 291 kts | 196° |
| 2026-05-03 22:08 | 26.18751 | -80.03698 | 11739 ft | 289 kts | 195° |
| 2026-05-03 22:08 | 26.16779 | -80.04147 | 11623 ft | 289 kts | 195° |
| 2026-05-03 22:08 | 26.14814 | -80.04596 | 11500 ft | 288 kts | 195° |
| 2026-05-03 22:08 | 26.12847 | -80.05046 | 11367 ft | 288 kts | 195° |
| 2026-05-03 22:09 | 26.10888 | -80.05494 | 11252 ft | 287 kts | 195° |
| 2026-05-03 22:09 | 26.08930 | -80.05941 | 11131 ft | 287 kts | 195° |
| 2026-05-03 22:09 | 26.06975 | -80.06389 | 11012 ft | 287 kts | 195° |
| 2026-05-03 22:10 | 26.03087 | -80.07356 | 10689 ft | 285 kts | 197° |
| 2026-05-03 22:10 | 26.01156 | -80.07866 | 10537 ft | 285 kts | 197° |
| 2026-05-03 22:10 | 25.99227 | -80.08380 | 10370 ft | 285 kts | 197° |
| 2026-05-03 22:10 | 25.97301 | -80.08888 | 10220 ft | 284 kts | 197° |
| 2026-05-03 22:11 | 25.95381 | -80.09391 | 10062 ft | 284 kts | 197° |
| 2026-05-03 22:11 | 25.93461 | -80.09890 | 9901 ft | 283 kts | 197° |
| 2026-05-03 22:11 | 25.91612 | -80.10580 | 9729 ft | 278 kts | 210° |
| 2026-05-03 22:11 | 25.89900 | -80.11574 | 9575 ft | 278 kts | 211° |
| 2026-05-03 22:12 | 25.88190 | -80.12568 | 9419 ft | 277 kts | 211° |
| 2026-05-03 22:12 | 25.86482 | -80.13557 | 9266 ft | 277 kts | 210° |
| 2026-05-03 22:12 | 25.84772 | -80.14543 | 9106 ft | 276 kts | 210° |
| 2026-05-03 22:12 | 25.83069 | -80.15527 | 8956 ft | 276 kts | 210° |
| 2026-05-03 22:13 | 25.81369 | -80.16508 | 8801 ft | 275 kts | 210° |
| 2026-05-03 22:13 | 25.79674 | -80.17484 | 8641 ft | 274 kts | 210° |
| 2026-05-03 22:13 | 25.77982 | -80.18459 | 8494 ft | 273 kts | 210° |
| 2026-05-03 22:13 | 25.76299 | -80.19427 | 8323 ft | 272 kts | 210° |
| 2026-05-03 22:14 | 25.74627 | -80.20404 | 8188 ft | 271 kts | 214° |
| 2026-05-03 22:14 | 25.73197 | -80.21727 | 8039 ft | 267 kts | 231° |
| 2026-05-03 22:14 | 25.72215 | -80.23458 | 7787 ft | 265 kts | 248° |
| 2026-05-03 22:14 | 25.71712 | -80.25414 | 7503 ft | 264 kts | 257° |
| 2026-05-03 22:15 | 25.71315 | -80.27398 | 7217 ft | 263 kts | 259° |
| 2026-05-03 22:15 | 25.71172 | -80.29419 | 6943 ft | 263 kts | 266° |
| 2026-05-03 22:15 | 25.71084 | -80.31433 | 6567 ft | 261 kts | 266° |
| 2026-05-03 22:15 | 25.70992 | -80.33436 | 6154 ft | 259 kts | 266° |
| 2026-05-03 22:16 | 25.70898 | -80.35429 | 5719 ft | 259 kts | 266° |
| 2026-05-03 22:16 | 25.70825 | -80.37398 | 5495 ft | 249 kts | 266° |
| 2026-05-03 22:16 | 25.70744 | -80.39270 | 5371 ft | 237 kts | 266° |
| 2026-05-03 22:16 | 25.70646 | -80.41049 | 5183 ft | 228 kts | 265° |
| 2026-05-03 22:17 | 25.70531 | -80.42790 | 4855 ft | 226 kts | 265° |
| 2026-05-03 22:17 | 25.70404 | -80.44521 | 4502 ft | 225 kts | 265° |
| 2026-05-03 22:17 | 25.70270 | -80.46250 | 4166 ft | 223 kts | 264° |
| 2026-05-03 22:17 | 25.70136 | -80.47934 | 3967 ft | 216 kts | 264° |
| 2026-05-03 22:18 | 25.70002 | -80.49589 | 3672 ft | 215 kts | 264° |
| 2026-05-03 22:18 | 25.69868 | -80.51241 | 3344 ft | 215 kts | 264° |
| 2026-05-03 22:18 | 25.69737 | -80.52893 | 3037 ft | 214 kts | 267° |
| 2026-05-03 22:18 | 25.70057 | -80.54485 | 3012 ft | 217 kts | 299° |
| 2026-05-03 22:19 | 25.71165 | -80.55618 | 3010 ft | 223 kts | 334° |
| 2026-05-03 22:19 | 25.72685 | -80.56027 | 3022 ft | 229 kts | 349° |
| 2026-05-03 22:19 | 25.74274 | -80.56205 | 3008 ft | 230 kts | 352° |
| 2026-05-03 22:19 | 25.75902 | -80.56132 | 2999 ft | 240 kts | 17° |
| 2026-05-03 22:20 | 25.76861 | -80.55532 | 2993 ft | 233 kts | 44° |
| 2026-05-03 22:20 | 25.77619 | -80.54049 | 2996 ft | 217 kts | 81° |
| 2026-05-03 22:20 | 25.77733 | -80.52419 | 3008 ft | 210 kts | 88° |
| 2026-05-03 22:20 | 25.77792 | -80.50809 | 3010 ft | 209 kts | 88° |
| 2026-05-03 22:21 | 25.77857 | -80.49205 | 3005 ft | 208 kts | 87° |
| 2026-05-03 22:21 | 25.77925 | -80.47600 | 2832 ft | 208 kts | 87° |
| 2026-05-03 22:21 | 25.77993 | -80.46021 | 2593 ft | 207 kts | 87° |
| 2026-05-03 22:21 | 25.78061 | -80.44426 | 2360 ft | 200 kts | 87° |
| 2026-05-03 22:22 | 25.78124 | -80.42951 | 2079 ft | 188 kts | 87° |
| 2026-05-03 22:22 | 25.78184 | -80.41552 | 1839 ft | 174 kts | 87° |
| 2026-05-03 22:22 | 25.78238 | -80.40274 | 1628 ft | 156 kts | 87° |
| 2026-05-03 22:22 | 25.78287 | -80.39115 | 1430 ft | 146 kts | 87° |
| 2026-05-03 22:23 | 25.78334 | -80.38002 | 1243 ft | 143 kts | 87° |
| 2026-05-03 22:23 | 25.78381 | -80.36907 | 1060 ft | 141 kts | 87° |
| 2026-05-03 22:23 | 25.78426 | -80.35835 | 886 ft | 140 kts | 87° |
| 2026-05-03 22:23 | 25.78470 | -80.34766 | 695 ft | 138 kts | 88° |
| 2026-05-03 22:24 | 25.78514 | -80.33713 | 522 ft | 135 kts | 86° |
| 2026-05-03 22:24 | 25.78557 | -80.32677 | 361 ft | 134 kts | 88° |
| 2026-05-03 22:24 | 25.78600 | -80.31653 | 159 ft | 132 kts | 87° |
| 2026-05-03 22:24 | 25.78649 | -80.30653 | 24 ft | 121 kts | 88° |
| 2026-05-03 22:25 | 25.78678 | -80.29905 | 16 ft | 72 kts | 87° |
| 2026-05-03 22:25 | 25.78695 | -80.29494 | 16 ft | 41 kts | 88° |
| 2026-05-03 22:25 | 25.78720 | -80.29267 | 19 ft | 21 kts | 73° |
| 2026-05-03 22:25 | 25.78775 | -80.29186 | 17 ft | 0 kts | 39° |
| 2026-05-03 22:26 | 25.78776 | -80.29185 | 17 ft | 1 kts | 39° |
| 2026-05-03 22:26 | 25.78810 | -80.29139 | 16 ft | 13 kts | 61° |
| 2026-05-03 22:26 | 25.78824 | -80.29050 | 16 ft | 13 kts | 84° |
| 2026-05-03 22:26 | 25.78842 | -80.28956 | 18 ft | 0 kts | 75° |
| 2026-05-03 22:27 | 25.78848 | -80.28928 | 16 ft | 0 kts | 75° |
| 2026-05-03 22:27 | 25.78849 | -80.28927 | 16 ft | 0 kts | 75° |
| 2026-05-03 22:28 | 25.78852 | -80.28913 | 16 ft | 9 kts | 75° |
| 2026-05-03 22:28 | 25.78868 | -80.28824 | 15 ft | 11 kts | 85° |
| 2026-05-03 22:28 | 25.78871 | -80.28728 | 14 ft | 13 kts | 88° |
| 2026-05-03 22:29 | 25.78886 | -80.28626 | 18 ft | 13 kts | 58° |
| 2026-05-03 22:29 | 25.78952 | -80.28559 | 17 ft | 9 kts | 50° |
| 2026-05-03 22:29 | 25.78964 | -80.28487 | 18 ft | 10 kts | 86° |
| 2026-05-03 22:29 | 25.78969 | -80.28407 | 19 ft | 11 kts | 86° |
| 2026-05-03 22:30 | 25.78972 | -80.28315 | 20 ft | 12 kts | 90° |
| 2026-05-03 22:30 | 25.78980 | -80.28222 | 20 ft | 12 kts | 72° |
| 2026-05-03 22:30 | 25.79015 | -80.28165 | 22 ft | 9 kts | 52° |
| 2026-05-03 22:30 | 25.79049 | -80.28154 | 22 ft | 4 kts | 339° |
| 2026-05-03 22:31 | 25.79077 | -80.28198 | 24 ft | 12 kts | 300° |
| 2026-05-03 22:31 | 25.79113 | -80.28261 | 23 ft | 8 kts | 304° |
| 2026-05-03 22:31 | 25.79142 | -80.28313 | 21 ft | 8 kts | 300° |
| 2026-05-03 22:31 | 25.79174 | -80.28374 | 19 ft | 10 kts | 307° |
| 2026-05-03 22:32 | 25.79231 | -80.28378 | 20 ft | 8 kts | 38° |
| 2026-05-03 22:32 | 25.79252 | -80.28358 | 20 ft | 3 kts | 40° |
| 2026-05-03 22:32 | 25.79284 | -80.28327 | 20 ft | 6 kts | 44° |
| 2026-05-03 22:32 | 25.79286 | -80.28292 | 20 ft | 4 kts | 114° |
| 2026-05-03 22:33 | 25.79274 | -80.28277 | 20 ft | 1 kts | 129° |
| 2026-05-03 22:33 | 25.79272 | -80.28273 | 20 ft | 0 kts | 130° |
| 2026-05-03 22:33 | 25.79263 | -80.28263 | 20 ft | 1 kts | 132° |
| 2026-05-03 22:34 | 25.79253 | -80.28250 | 21 ft | 3 kts | 133° |
| 2026-05-03 22:34 | 25.79248 | -80.28244 | 21 ft | 0 kts | 133° |